Cape May Court House, New Jersey
Current Conditions -  °F | °C
As of 1:15 PM on Wednesday 28 Jan 2015 (Local Time) from KWWD Reporting Station
Clear Clear  
Wind Chill: 20°   Ceiling: Unl
Heat Index: 30°   Visibility: 10mi
Dew Point: 10°   Wind: 14mph
Humidity: 44%   Direction: 290°WNW
Pressure: 30.1"   Gusts: 24mph
Location:  39.08°N, 74.82°W
Report Text: KWWD 281815Z AUTO 29012G21KT 10SM CLR M01/M12 A3010 RMK AO1
Loading
Personal Weather Stations






























Interactive Weather Map New forecast layout! Learn more

10-Day Weather Forecast

Advertisements
Track Severe Weather on mobile